Pagina principale
METAR-TAF:

METAR-TAF

Aeroporti :

Port Said, Egitto

latitudine: 31-16N, longitudine: 032-18E, altezza: 6 m

Osservazione

Il bollettino è stato emesso 47 minuti fa, alle 02:00 UTC
Vento 6 kt da nord-ovest
Temperature 11°C
Umidità 76%
Pressione 1027 hPa
Visibilità 10 km o più
nessuna nube inferiore a 1500 m e nessun cumulonembo

METAR: HEPS 250200Z 32006KT CAVOK 11/07 Q1027 NOSIG

Ora: 04:47 (02:47 UTC)

Previsione

Il bollettino è stato emesso 3 ore e 47 minuti fa, alle 23:00 UTC
Previsione valida dal 25 alle 00 UTC al 26 alle 06 UTC
Vento 11 kt da nord
Visibilità 10 km o più
Nubi sparse ad un'altezza di 2500 ft
Temporaneamente
dal 25 alle 02 UTC al 25 alle 06 UTC
Vento 3 kt da direzioni variabili

TAF: HEPS 242300Z 2500/2606 35011KT 9999 SCT025 TEMPO 2502/2506 VRB03KT 4000BR NSC

Osservazioni e previsioni meteorologiche di più di 4000 aeroporti (messaggi METAR e TAF).

Le stazioni disponibili sono rappresentate dai dischi gialli e rossi sulla carta.

Puntare il mouse per vedere il nome della stazione.

Clicca sopra per visualizzare le osservazioni e previsioni meteorologiche.

Per cambiare la mappa : fare clic sui pulsanti verdi con una croce nera per ingrandire, il pulsante verde con un trattino per diminuire, o sulla freccia verde per le mappe adiacenti.


METAR-TAF: